Nearby METAR Reports

 

KSJC - San Jose, California, USA
Distance from station: NE 9mi, 14km
Updated: Thu, 20-Jun-2024 6:53pm CDT
Mostly cloudy
Mostly cloudy
 Wind from NW
Wind: NW 15 mph, 24 km/h
Temperature: 72°F, 22°C
Dew Point: 50°F, 10°C
Humidity: 47%
Barometer: 29.84 inHg, 1010.5 hPa
Clouds: Mostly cloudy
Visibility: 10 miles, 16 km
Cloud details: Few Clouds 5000 ft
Partly cloudy 6500 ft
Mostly cloudy 9000 ft
2024/06/20 23:53 KSJC 202353Z 32013KT 10SM FEW050 SCT065 BKN090 22/10 A2984 RMK AO2 SLP102 T02220100 10233 20206 56010
KNUQ - Moffett Nas/Mtn, California, USA
Distance from station: N 9mi, 14km
Updated: Thu, 20-Jun-2024 7:35pm CDT
Clear
Clear
 Wind from N
Wind: N 17 mph, 28 km/h
Temperature: 64°F, 18°C
Dew Point: 54°F, 12°C
Humidity: 68%
Barometer: 29.85 inHg, 1010.8 hPa
Clouds: Clear
Visibility: 10 miles, 16 km
2024/06/21 00:35 KNUQ 210035Z AUTO 35015KT 10SM CLR 18/12 A2985 RMK AO2
 
KPAO - Palo Alto, California, USA
Distance from station: NNW 14mi, 23km
Updated: Thu, 20-Jun-2024 7:47pm CDT
Clear
Clear
 Wind from NW
Wind: NW 15 mph, 24 km/h
Temperature: 64°F, 18°C
Dew Point: 52°F, 11°C
Humidity: 64%
Barometer: 29.85 inHg, 1010.8 hPa
Clouds: Clear
Visibility: 10 miles, 16 km
2024/06/21 00:47 KPAO 210047Z 32013KT 10SM SKC 18/11 A2985
KRHV - San Jose/Reid, California, USA
Distance from station: ENE 12mi, 19km
Updated: Thu, 20-Jun-2024 7:47pm CDT
Few Clouds
Few Clouds
 Wind from NW
Wind: NW 12 mph, 19 km/h
Temperature: 72°F, 22°C
Dew Point: 52°F, 11°C
Humidity: 50%
Barometer: 29.84 inHg, 1010.5 hPa
Clouds: Few Clouds
Visibility: 10 miles, 16 km
Cloud details: Few Clouds 5000 ft
2024/06/21 00:47 KRHV 210047Z 32010KT 10SM FEW050 22/11 A2984
 
KOAK - Oakland, California, USA
Distance from station: NNW 31mi, 50km
Updated: Thu, 20-Jun-2024 6:53pm CDT
Partly cloudy
Partly cloudy
 Wind from W
Wind: W 14 mph, 22 km/h
Temperature: 63°F, 17°C
Dew Point: 52°F, 11°C
Humidity: 68%
Barometer: 29.87 inHg, 1011.5 hPa
Clouds: Partly cloudy
Visibility: 10 miles, 16 km
Cloud details: Few Clouds 1000 ft
Partly cloudy 18000 ft
Partly cloudy 25000 ft
2024/06/20 23:53 KOAK 202353Z 28012KT 10SM FEW010 SCT180 SCT250 17/11 A2987 RMK AO2 SLP114 T01670106 10178 20150 55008
KSQL - San Carlos Airpo, California, USA
Distance from station: NW 21mi, 34km
Updated: Thu, 20-Jun-2024 6:47pm CDT
Clear
Clear
 Wind from WNW
Wind: WNW 17 mph, 28 km/h
Temperature: 64°F, 18°C
Dew Point: 46°F, 8°C
Humidity: 52%
Barometer: 29.85 inHg, 1010.8 hPa
Clouds: Clear
Visibility: 10 miles, 16 km
2024/06/20 23:47 KSQL 202347Z 29015KT 10SM CLR 18/08 A2985
 
KSFO - San Francisco, California, USA
Distance from station: NW 30mi, 49km
Updated: Thu, 20-Jun-2024 6:56pm CDT
Partly cloudy
Partly cloudy
 Wind from W
Wind: W 18 mph, 30 km/h
Temperature: 57°F, 14°C
Dew Point: 48°F, 9°C
Humidity: 72%
Barometer: 29.86 inHg, 1011.2 hPa
Clouds: Partly cloudy
Visibility: 10 miles, 16 km
Cloud details: Few Clouds 400 ft
Few Clouds 18000 ft
Partly cloudy 20000 ft
2024/06/20 23:56 KSFO 202356Z 27016KT 10SM FEW004 FEW180 SCT200 14/09 A2986 RMK AO2 PK WND 28029/2318 SLP112 T01440094 10172 20144 56007
KE16 - San Martin, California, USA
Distance from station: ESE 27mi, 43km
Updated: Thu, 20-Jun-2024 7:35pm CDT
Clear
Clear
 Wind from SE
Wind: SE 10 mph, 17 km/h
Temperature: 73°F, 23°C
Dew Point: 50°F, 10°C
Humidity: 44%
Barometer: 29.83 inHg, 1010.2 hPa
Clouds: Clear
Visibility: 10 miles, 16 km
2024/06/21 00:35 KE16 210035Z AUTO 13009KT 10SM CLR 23/10 A2983 RMK AO2 PWINO PNO
 
KWVI - Watsonville, California, USA
Distance from station: SSE 27mi, 44km
Updated: Thu, 20-Jun-2024 6:53pm CDT
Clear
Clear
 Wind from S
Wind: S 8 mph, 13 km/h
Temperature: 64°F, 18°C
Dew Point: 52°F, 11°C
Humidity: 64%
Barometer: 29.87 inHg, 1011.5 hPa
Clouds: Clear
Visibility: 10 miles, 16 km
2024/06/20 23:53 KWVI 202353Z AUTO 17007KT 10SM CLR 18/11 A2987 RMK AO2 SLP113 T01780111 10189 20156 56011
KHAF - Half Moon Bay, California, USA
Distance from station: WNW 31mi, 50km
Updated: Thu, 20-Jun-2024 7:35pm CDT
Mist, Overcast
Mist, Overcast
 Wind from NW
Wind: NW 12 mph, 19 km/h
Temperature: 54°F, 12°C
Dew Point: 52°F, 11°C
Humidity: 94%
Barometer: 29.91 inHg, 1012.9 hPa
Summary: Mist
Clouds: Overcast
Visibility: 6 miles, 10 km
Cloud details: Overcast 700 ft
2024/06/21 00:35 KHAF 210035Z AUTO 32010KT 6SM BR OVC007 12/11 A2991 RMK AO2
 
KHWD - Hayward, California, USA
Distance from station: N 28mi, 44km
Updated: Thu, 20-Jun-2024 6:54pm CDT
Few Clouds
Few Clouds
 Wind from W
Wind: W 15 mph, 24 km/h
Temperature: 63°F, 17°C
Dew Point: 50°F, 10°C
Humidity: 64%
Barometer: 29.86 inHg, 1011.2 hPa
Clouds: Few Clouds
Visibility: 10 miles, 16 km
Cloud details: Few Clouds 1000 ft
2024/06/20 23:54 KHWD 202354Z 27013KT 10SM FEW010 17/10 A2986 RMK AO2 SLP119 T01720100 10194 20161 55008
KLVK - Livermore, California, USA
Distance from station: NNE 31mi, 51km
Updated: Thu, 20-Jun-2024 6:53pm CDT
Clear
Clear
 Wind from WNW
Wind: WNW 13 mph, 20 km/h
Temperature: 77°F, 25°C
Dew Point: 46°F, 8°C
Humidity: 34%
Barometer: 29.80 inHg, 1009.1 hPa
Clouds: Clear
Visibility: 10 miles, 16 km
2024/06/20 23:53 KLVK 202353Z 29011KT 10SM CLR 25/08 A2980 RMK AO2 SLP088 T02500083 10267 20183 56013 $